Time;durP1;ratioP1;P1;durP2;ratioP2;P2;SDS_P1;SDS_P2;PMS_P1;PMS_P2;Temp;Humidity;BMP_temperature;BMP_pressure;BME280_temperature;BME280_humidity;BME280_pressure;Samples;Min_cycle;Max_cycle;Signal;HPM_P1;HPM_P2
2022/03/16 00:01:42;;;;;;;25.27;19.87;;;8.70;99.90;;;;;;6099843;23;20710;-90
2022/03/16 00:04:11;;;;;;;25.67;21.10;;;8.50;99.90;;;;;;6096510;23;20250;-90
2022/03/16 00:06:39;;;;;;;25.60;20.40;;;8.50;99.90;;;;;;6099437;23;20647;-88
2022/03/16 00:09:05;;;;;;;23.73;20.10;;;8.50;99.90;;;;;;6094689;23;20444;-88
2022/03/16 00:11:31;;;;;;;23.43;19.47;;;8.60;99.90;;;;;;6099145;23;20396;-90
2022/03/16 00:13:57;;;;;;;25.03;20.40;;;8.70;99.90;;;;;;6097666;23;20171;-90
2022/03/16 00:16:22;;;;;;;25.97;21.53;;;8.60;99.90;;;;;;6098369;23;20911;-90
2022/03/16 00:18:54;;;;;;;24.50;20.60;;;8.70;99.90;;;;;;6097409;23;20557;-90
2022/03/16 00:21:29;;;;;;;23.23;19.43;;;8.70;99.90;;;;;;6124377;23;20436;-89
2022/03/16 00:24:04;;;;;;;26.80;20.70;;;8.70;99.90;;;;;;6095353;23;20397;-91
2022/03/16 00:26:52;;;;;;;25.00;21.40;;;8.70;99.90;;;;;;6129088;23;20168;-90
2022/03/16 00:29:18;;;;;;;29.50;22.37;;;8.60;99.90;;;;;;6098842;23;20471;-90
2022/03/16 00:31:47;;;;;;;26.03;21.10;;;8.60;99.90;;;;;;6099684;23;20392;-90
2022/03/16 00:34:19;;;;;;;26.00;21.50;;;8.50;99.90;;;;;;6094259;23;20172;-91
2022/03/16 00:36:45;;;;;;;27.37;21.93;;;8.60;99.90;;;;;;6100858;23;20411;-91
2022/03/16 00:39:13;;;;;;;30.37;21.87;;;8.50;99.90;;;;;;6099386;23;20443;-90
2022/03/16 00:41:42;;;;;;;27.70;21.40;;;8.50;99.90;;;;;;6101547;23;20160;-89
2022/03/16 00:44:07;;;;;;;26.87;21.17;;;8.50;99.90;;;;;;6099894;23;21063;-89
2022/03/16 00:46:34;;;;;;;26.50;20.83;;;8.60;99.90;;;;;;6091654;23;20203;-89
2022/03/16 00:49:00;;;;;;;25.10;21.80;;;8.70;99.90;;;;;;6097252;23;20291;-89
2022/03/16 00:51:27;;;;;;;24.90;19.40;;;8.80;99.90;;;;;;6097661;23;20839;-88
2022/03/16 00:53:53;;;;;;;24.43;19.80;;;8.70;99.90;;;;;;6096088;23;20465;-88
2022/03/16 00:56:18;;;;;;;25.43;20.60;;;8.70;99.90;;;;;;6096189;23;20396;-89
2022/03/16 00:58:44;;;;;;;26.13;19.73;;;8.70;99.90;;;;;;6098725;23;20396;-88
2022/03/16 01:01:10;;;;;;;27.07;21.57;;;8.50;99.90;;;;;;6102230;23;20168;-89
2022/03/16 01:03:41;;;;;;;23.30;19.87;;;8.60;99.90;;;;;;6099840;23;20192;-89
2022/03/16 01:06:15;;;;;;;24.93;20.87;;;8.60;99.90;;;;;;6102932;23;20157;-90
2022/03/16 01:08:45;;;;;;;26.40;21.00;;;8.70;99.90;;;;;;6100823;23;20431;-91
2022/03/16 01:11:14;;;;;;;25.90;20.60;;;8.70;99.90;;;;;;6102201;23;20918;-91
2022/03/16 01:14:01;;;;;;;25.13;20.60;;;8.70;99.90;;;;;;6101257;23;20392;-90
2022/03/16 01:16:29;;;;;;;23.47;19.77;;;8.70;99.90;;;;;;6102236;23;20555;-91
2022/03/16 01:18:58;;;;;;;24.23;19.93;;;8.80;99.90;;;;;;6099748;23;20416;-91
2022/03/16 01:21:26;;;;;;;23.20;19.87;;;8.70;99.90;;;;;;6100813;23;20519;-91
2022/03/16 01:24:01;;;;;;;23.67;20.77;;;8.70;99.90;;;;;;6101777;23;20388;-91
2022/03/16 01:27:02;;;;;;;27.27;21.90;;;8.60;99.90;;;;;;6130626;23;20423;-90
2022/03/16 01:29:28;;;;;;;26.93;21.10;;;8.50;99.90;;;;;;6102155;23;20440;-90
2022/03/16 01:31:54;;;;;;;27.83;21.23;;;8.50;99.90;;;;;;6100605;23;20450;-87
2022/03/16 01:34:30;;;;;;;26.80;20.67;;;8.60;99.90;;;;;;6128154;23;20937;-89
2022/03/16 01:36:56;;;;;;;26.07;21.07;;;8.60;99.90;;;;;;6103702;23;20407;-89
2022/03/16 01:39:22;;;;;;;26.60;20.63;;;8.70;99.90;;;;;;6104031;23;20861;-88
2022/03/16 01:41:50;;;;;;;27.37;21.13;;;8.50;99.90;;;;;;6101375;23;20407;-89
2022/03/16 01:44:18;;;;;;;27.07;20.63;;;8.50;99.90;;;;;;6102565;23;20164;-88
2022/03/16 01:46:43;;;;;;;31.17;22.63;;;8.50;99.90;;;;;;6100760;23;21223;-89
2022/03/16 01:49:09;;;;;;;26.97;21.17;;;8.20;99.90;;;;;;6102484;23;20449;-90
2022/03/16 01:51:35;;;;;;;24.57;20.10;;;8.60;99.90;;;;;;6102320;23;20207;-89
2022/03/16 01:54:01;;;;;;;28.90;22.30;;;8.70;99.90;;;;;;6097804;23;20558;-89
2022/03/16 01:56:27;;;;;;;25.90;20.60;;;8.70;99.90;;;;;;6099255;23;20392;-89
2022/03/16 01:58:52;;;;;;;27.50;21.43;;;8.80;99.90;;;;;;6097965;23;20502;-89
2022/03/16 02:01:21;;;;;;;26.47;21.20;;;8.70;99.90;;;;;;6098213;23;20165;-89
2022/03/16 02:03:46;;;;;;;26.57;21.20;;;8.70;99.90;;;;;;6096962;23;20198;-89
2022/03/16 02:06:12;;;;;;;25.20;20.50;;;8.70;99.90;;;;;;6097012;23;20662;-88
2022/03/16 02:08:41;;;;;;;26.30;21.17;;;8.80;99.90;;;;;;6097124;23;20191;-89
2022/03/16 02:11:07;;;;;;;27.43;21.10;;;8.80;99.90;;;;;;6102301;23;20230;-89
2022/03/16 02:13:37;;;;;;;26.17;21.80;;;8.80;99.90;;;;;;6098393;23;20388;-89
2022/03/16 02:16:03;;;;;;;27.10;21.83;;;8.80;99.90;;;;;;6099054;23;20436;-89
2022/03/16 02:18:29;;;;;;;26.53;21.27;;;8.80;99.90;;;;;;6095506;23;20423;-89
2022/03/16 02:21:00;;;;;;;27.50;21.90;;;8.90;99.90;;;;;;6094859;23;20393;-89
2022/03/16 02:23:26;;;;;;;28.67;23.10;;;8.80;99.90;;;;;;6096690;23;20613;-89
2022/03/16 02:25:56;;;;;;;27.90;21.47;;;8.80;99.90;;;;;;6097666;23;20490;-89
2022/03/16 02:28:27;;;;;;;26.20;21.33;;;8.70;99.90;;;;;;6101405;23;20436;-89
2022/03/16 02:30:56;;;;;;;27.33;21.80;;;8.80;99.90;;;;;;6098695;23;20732;-89
2022/03/16 02:33:27;;;;;;;25.97;21.10;;;8.80;99.90;;;;;;6097110;23;20752;-89
2022/03/16 02:36:06;;;;;;;27.17;22.10;;;8.80;99.90;;;;;;6101417;23;20396;-89
2022/03/16 02:38:32;;;;;;;26.63;21.50;;;8.70;99.90;;;;;;6098970;23;20431;-89
2022/03/16 02:40:59;;;;;;;28.87;21.03;;;8.70;99.90;;;;;;6102135;23;20957;-89
2022/03/16 02:43:25;;;;;;;26.97;20.60;;;8.60;99.90;;;;;;6098233;23;20157;-89
2022/03/16 02:45:51;;;;;;;25.97;21.10;;;8.60;99.90;;;;;;6094710;23;20789;-89
2022/03/16 02:48:16;;;;;;;25.53;19.73;;;8.80;99.90;;;;;;6099989;23;20192;-89
2022/03/16 02:50:42;;;;;;;28.37;21.60;;;8.70;99.90;;;;;;6095542;23;20234;-88
2022/03/16 02:53:08;;;;;;;30.10;23.07;;;8.80;99.90;;;;;;6098505;23;20580;-89
2022/03/16 02:55:33;;;;;;;26.57;20.83;;;8.70;99.90;;;;;;6099615;23;20228;-89
2022/03/16 02:58:00;;;;;;;29.40;21.70;;;8.70;99.90;;;;;;6100224;23;20323;-89
2022/03/16 03:00:26;;;;;;;29.13;22.43;;;8.80;99.90;;;;;;6095523;23;20616;-89
2022/03/16 03:02:53;;;;;;;30.63;23.13;;;8.80;99.90;;;;;;6094583;23;20388;-90
2022/03/16 03:05:19;;;;;;;29.37;22.90;;;8.80;99.90;;;;;;6095676;23;20739;-90
2022/03/16 03:07:44;;;;;;;27.13;23.20;;;8.70;99.90;;;;;;6100810;23;20862;-90
2022/03/16 03:10:10;;;;;;;26.00;21.10;;;8.70;99.90;;;;;;6103312;23;20192;-89
2022/03/16 03:12:36;;;;;;;24.23;19.73;;;8.70;99.90;;;;;;6100167;23;20195;-89
2022/03/16 03:15:04;;;;;;;27.43;20.90;;;8.70;99.90;;;;;;6104467;23;20189;-89
2022/03/16 03:17:30;;;;;;;25.00;20.03;;;8.70;99.90;;;;;;6104080;23;20165;-89
2022/03/16 03:19:58;;;;;;;24.77;18.60;;;8.70;99.90;;;;;;6103013;23;20926;-90
2022/03/16 03:22:28;;;;;;;22.53;19.37;;;8.70;99.90;;;;;;6128931;23;20156;-89
2022/03/16 03:24:54;;;;;;;24.20;18.63;;;8.60;99.90;;;;;;6106013;23;20415;-88
2022/03/16 03:27:20;;;;;;;24.60;20.20;;;8.60;99.90;;;;;;6105041;23;20475;-89
2022/03/16 03:29:46;;;;;;;27.60;21.13;;;8.60;99.90;;;;;;6102847;23;21107;-88
2022/03/16 03:32:12;;;;;;;27.73;22.40;;;8.60;99.90;;;;;;6099189;23;20395;-89
2022/03/16 03:34:45;;;;;;;29.93;23.13;;;8.60;99.90;;;;;;6103323;23;20211;-89
2022/03/16 03:37:12;;;;;;;28.67;23.10;;;8.70;99.90;;;;;;6100879;23;20148;-89
2022/03/16 03:39:52;;;;;;;30.57;22.57;;;8.70;99.90;;;;;;6126581;23;20706;-89
2022/03/16 03:42:18;;;;;;;31.30;24.10;;;8.70;99.90;;;;;;6107052;23;20696;-89
2022/03/16 03:44:43;;;;;;;30.13;23.37;;;8.60;99.90;;;;;;6100522;23;20184;-89
2022/03/16 03:47:10;;;;;;;30.57;22.57;;;8.60;99.90;;;;;;6101774;23;20153;-88
2022/03/16 03:49:38;;;;;;;29.87;23.03;;;8.60;99.90;;;;;;6102856;23;20196;-89
2022/03/16 03:52:04;;;;;;;38.63;27.30;;;8.70;99.90;;;;;;6099333;23;20474;-88
2022/03/16 03:54:30;;;;;;;36.37;27.40;;;8.60;99.90;;;;;;6097490;23;20503;-87
2022/03/16 03:56:56;;;;;;;36.33;25.67;;;8.50;99.90;;;;;;6104465;23;21231;-88
2022/03/16 03:59:24;;;;;;;35.00;27.07;;;8.50;99.90;;;;;;6096192;23;20369;-88
2022/03/16 04:01:52;;;;;;;36.27;26.30;;;8.60;99.90;;;;;;6095437;23;20459;-89
2022/03/16 04:04:18;;;;;;;40.33;27.70;;;8.60;99.90;;;;;;6096797;23;20482;-89
2022/03/16 04:06:43;;;;;;;39.70;27.53;;;8.60;99.90;;;;;;6098812;23;20384;-88
2022/03/16 04:09:12;;;;;;;39.87;29.50;;;8.50;99.90;;;;;;6098500;23;20449;-90
2022/03/16 04:11:52;;;;;;;38.00;26.93;;;8.40;99.90;;;;;;6099387;23;20615;-90
2022/03/16 04:14:18;;;;;;;38.67;26.13;;;8.40;99.90;;;;;;6100014;23;20396;-89
2022/03/16 04:16:46;;;;;;;38.07;26.93;;;8.50;99.90;;;;;;6099422;23;20200;-89
2022/03/16 04:19:11;;;;;;;38.13;27.50;;;8.50;99.90;;;;;;6100606;23;20909;-89
2022/03/16 04:21:37;;;;;;;40.03;27.60;;;8.50;99.90;;;;;;6097279;23;20419;-89
2022/03/16 04:24:03;;;;;;;36.20;27.37;;;8.50;99.90;;;;;;6096242;23;20191;-89
2022/03/16 04:26:29;;;;;;;39.93;28.63;;;8.60;99.90;;;;;;6100560;23;20263;-89
2022/03/16 04:28:57;;;;;;;40.90;27.30;;;8.60;99.90;;;;;;6105063;23;20984;-90
2022/03/16 04:31:23;;;;;;;40.20;28.90;;;8.40;99.90;;;;;;6099517;23;20163;-90
2022/03/16 04:33:48;;;;;;;40.80;28.80;;;8.40;99.90;;;;;;6101603;23;20899;-89
2022/03/16 04:36:14;;;;;;;36.90;27.80;;;8.40;99.90;;;;;;6096845;23;20238;-89
2022/03/16 04:38:40;;;;;;;41.27;28.10;;;8.40;99.90;;;;;;6098609;23;20168;-89
2022/03/16 04:41:05;;;;;;;38.40;28.50;;;8.40;99.90;;;;;;6098742;23;20627;-91
2022/03/16 04:43:31;;;;;;;42.40;28.10;;;8.30;99.90;;;;;;6099638;23;20191;-90
2022/03/16 04:45:56;;;;;;;36.83;27.17;;;8.20;99.90;;;;;;6097304;23;20159;-90
2022/03/16 04:48:25;;;;;;;45.13;29.40;;;8.30;99.90;;;;;;6102773;23;20224;-90
2022/03/16 04:50:50;;;;;;;39.60;28.33;;;8.30;99.90;;;;;;6094197;23;20172;-90
2022/03/16 04:53:16;;;;;;;43.53;30.10;;;8.30;99.90;;;;;;6101916;23;20760;-90
2022/03/16 04:55:42;;;;;;;43.93;28.87;;;8.30;99.90;;;;;;6100744;23;20175;-90
2022/03/16 04:58:09;;;;;;;42.97;28.93;;;8.20;99.90;;;;;;6100286;23;20222;-89
2022/03/16 05:00:35;;;;;;;45.57;29.60;;;8.20;99.90;;;;;;6103673;23;20400;-88
2022/03/16 05:03:04;;;;;;;41.83;30.47;;;8.20;99.90;;;;;;6102332;23;20776;-91
2022/03/16 05:05:33;;;;;;;39.97;29.10;;;8.10;99.90;;;;;;6100922;23;20763;-90
2022/03/16 05:08:02;;;;;;;41.30;28.43;;;8.00;99.90;;;;;;6105203;23;20419;-91
2022/03/16 05:10:28;;;;;;;43.27;28.37;;;8.00;99.90;;;;;;6104142;23;20850;-88
2022/03/16 05:13:12;;;;;;;38.53;27.63;;;8.00;99.90;;;;;;6102806;23;20271;-88
2022/03/16 05:16:06;;;;;;;40.30;27.23;;;8.20;99.90;;;;;;6104914;23;20560;-90
2022/03/16 05:18:48;;;;;;;46.40;30.70;;;8.10;99.90;;;;;;6122830;23;20691;-88
2022/03/16 05:21:14;;;;;;;47.27;29.90;;;8.00;99.90;;;;;;6100360;23;20418;-89
2022/03/16 05:23:40;;;;;;;47.23;30.47;;;7.90;99.90;;;;;;6105328;23;20434;-90
2022/03/16 05:26:06;;;;;;;52.70;30.57;;;7.80;99.90;;;;;;6103625;23;20398;-89
2022/03/16 05:28:32;;;;;;;55.03;33.77;;;7.90;99.90;;;;;;6105167;23;20998;-90
2022/03/16 05:30:58;;;;;;;52.93;32.47;;;7.80;99.90;;;;;;6104552;23;20557;-89
2022/03/16 05:33:24;;;;;;;47.77;29.87;;;7.80;99.90;;;;;;6114659;23;20486;-89
2022/03/16 05:35:50;;;;;;;56.10;33.43;;;7.90;99.90;;;;;;6137380;23;20178;-89
2022/03/16 05:38:16;;;;;;;52.90;32.53;;;8.00;99.90;;;;;;6108174;23;20407;-93
2022/03/16 05:40:42;;;;;;;49.33;30.93;;;8.00;99.90;;;;;;6113392;23;20400;-95
2022/03/16 05:43:09;;;;;;;49.63;32.03;;;8.00;99.90;;;;;;6117238;23;20393;-95
2022/03/16 05:45:35;;;;;;;48.67;31.53;;;8.20;99.90;;;;;;6113812;23;20398;-94
2022/03/16 05:48:01;;;;;;;48.37;30.97;;;8.10;99.90;;;;;;6110779;23;20416;-91
2022/03/16 05:50:28;;;;;;;50.30;33.17;;;8.00;99.90;;;;;;6105776;23;21136;-87
2022/03/16 05:53:00;;;;;;;50.77;32.30;;;7.90;99.90;;;;;;6102653;23;20175;-90
2022/03/16 05:55:26;;;;;;;54.77;32.33;;;7.90;99.90;;;;;;6104791;23;20479;-90
2022/03/16 05:57:52;;;;;;;51.60;32.80;;;8.00;99.90;;;;;;6079809;23;20867;-90
2022/03/16 06:00:22;;;;;;;59.87;32.87;;;8.00;99.90;;;;;;6100730;23;20391;-90
2022/03/16 06:02:52;;;;;;;57.07;32.70;;;8.10;99.90;;;;;;6103668;23;20747;-88
2022/03/16 06:05:17;;;;;;;64.10;36.50;;;7.80;99.90;;;;;;6102745;23;20399;-89
2022/03/16 06:07:43;;;;;;;63.70;33.27;;;7.80;99.90;;;;;;6103935;23;20407;-92
2022/03/16 06:10:12;;;;;;;67.90;32.03;;;7.80;99.90;;;;;;6102415;23;20212;-88
2022/03/16 06:12:52;;;;;;;62.93;33.40;;;7.80;99.90;;;;;;6126641;23;20380;-91
2022/03/16 06:15:18;;;;;;;66.23;32.10;;;7.60;99.90;;;;;;6105011;23;20790;-92
2022/03/16 06:17:44;;;;;;;58.00;32.17;;;7.80;99.90;;;;;;6107089;23;20396;-90
2022/03/16 06:20:10;;;;;;;64.33;33.50;;;7.80;99.90;;;;;;6108873;23;20165;-91
2022/03/16 06:22:36;;;;;;;67.50;34.33;;;7.80;99.90;;;;;;6109964;23;20630;-89
2022/03/16 06:25:03;;;;;;;67.47;34.60;;;7.70;99.90;;;;;;6084066;23;20657;-90
2022/03/16 06:27:29;;;;;;;65.67;34.27;;;7.80;99.90;;;;;;6106231;23;20169;-92
2022/03/16 06:30:10;;;;;;;69.20;32.53;;;7.70;99.90;;;;;;6105985;23;20756;-92
2022/03/16 06:32:36;;;;;;;67.10;32.40;;;7.60;99.90;;;;;;6115679;23;20156;-92
2022/03/16 06:35:07;;;;;;;74.43;33.20;;;7.60;99.90;;;;;;6104122;23;20460;-94
2022/03/16 06:37:33;;;;;;;60.23;31.60;;;7.60;99.90;;;;;;6112460;23;20452;-93
2022/03/16 06:39:59;;;;;;;58.47;32.57;;;7.80;99.90;;;;;;6106774;23;20377;-89
2022/03/16 06:42:27;;;;;;;53.20;30.27;;;7.70;99.90;;;;;;6103364;23;20162;-90
2022/03/16 06:44:53;;;;;;;58.83;30.47;;;7.70;99.90;;;;;;6103069;23;20164;-89
2022/03/16 06:47:18;;;;;;;53.30;31.23;;;7.70;99.90;;;;;;6102634;23;20982;-89
2022/03/16 06:49:45;;;;;;;51.93;28.70;;;7.70;99.90;;;;;;6108873;23;20279;-90
2022/03/16 06:52:11;;;;;;;47.33;27.60;;;7.60;99.90;;;;;;6111184;23;20219;-91
2022/03/16 06:54:37;;;;;;;50.70;27.07;;;7.70;99.90;;;;;;6106579;23;20416;-91
2022/03/16 06:57:02;;;;;;;52.23;29.83;;;7.60;99.90;;;;;;6106123;23;20260;-90
2022/03/16 06:59:28;;;;;;;50.00;29.10;;;7.60;99.90;;;;;;6102430;23;20187;-87
2022/03/16 07:01:53;;;;;;;50.20;27.70;;;7.60;99.90;;;;;;6104272;23;20621;-91
2022/03/16 07:04:25;;;;;;;54.90;28.30;;;7.70;99.90;;;;;;6111385;23;20244;-95
2022/03/16 07:06:53;;;;;;;51.50;28.17;;;7.70;99.90;;;;;;6107191;23;20656;-91
2022/03/16 07:09:18;;;;;;;47.10;28.50;;;7.80;99.90;;;;;;6106036;23;20444;-88
2022/03/16 07:11:44;;;;;;;50.73;29.07;;;7.80;99.90;;;;;;6109207;23;20387;-92
2022/03/16 07:14:35;;;;;;;47.17;28.40;;;7.90;99.90;;;;;;6105918;23;20432;-89
2022/03/16 07:17:02;;;;;;;44.30;26.90;;;7.80;99.90;;;;;;6105494;23;20523;-87
2022/03/16 07:19:29;;;;;;;44.77;28.10;;;7.90;99.90;;;;;;6135418;23;20829;-89
2022/03/16 07:22:00;;;;;;;44.17;26.13;;;7.90;99.90;;;;;;6104360;23;20806;-87
2022/03/16 07:24:37;;;;;;;43.17;26.03;;;8.00;99.90;;;;;;6104586;23;20400;-89
2022/03/16 07:27:16;;;;;;;41.47;26.37;;;8.10;99.90;;;;;;6105726;23;20380;-91
2022/03/16 07:30:26;;;;;;;40.33;25.10;;;8.00;99.90;;;;;;6111816;23;20440;-93
2022/03/16 07:33:01;;;;;;;34.50;23.70;;;8.20;99.90;;;;;;6122476;23;20382;-92
2022/03/16 07:35:29;;;;;;;38.33;26.10;;;8.40;99.90;;;;;;6108737;23;20694;-87
2022/03/16 07:37:56;;;;;;;38.10;24.53;;;8.50;99.90;;;;;;6109855;23;20384;-86
2022/03/16 07:40:23;;;;;;;46.67;28.97;;;8.60;99.90;;;;;;6110981;23;21085;-91
2022/03/16 07:42:50;;;;;;;43.40;27.33;;;8.60;99.90;;;;;;6108912;23;20387;-91
2022/03/16 07:45:18;;;;;;;35.27;24.33;;;8.60;99.90;;;;;;6106712;23;20392;-89
2022/03/16 07:47:46;;;;;;;40.77;24.67;;;8.30;99.90;;;;;;6107944;23;20828;-89
2022/03/16 07:50:11;;;;;;;42.27;26.87;;;8.40;99.90;;;;;;6107857;23;20442;-89
2022/03/16 07:52:40;;;;;;;39.17;26.17;;;8.40;99.90;;;;;;6111356;23;20931;-89
2022/03/16 07:55:06;;;;;;;38.03;24.53;;;8.50;99.90;;;;;;6133772;23;20170;-88
2022/03/16 07:57:32;;;;;;;36.83;25.47;;;8.40;99.90;;;;;;6106114;23;20795;-89
2022/03/16 07:59:58;;;;;;;37.77;24.77;;;8.30;99.90;;;;;;6081479;23;20467;-89
2022/03/16 08:02:27;;;;;;;37.70;25.70;;;8.40;99.90;;;;;;6110947;23;20169;-89
2022/03/16 08:04:52;;;;;;;38.10;24.57;;;8.40;99.90;;;;;;6121122;23;20252;-88
2022/03/16 08:07:18;;;;;;;37.53;24.83;;;8.30;99.90;;;;;;6105867;23;20954;-89
2022/03/16 08:09:43;;;;;;;37.30;23.97;;;8.50;99.90;;;;;;6105657;23;20725;-89
2022/03/16 08:12:09;;;;;;;35.70;24.53;;;8.40;99.90;;;;;;6103960;23;20162;-90
2022/03/16 08:14:35;;;;;;;37.70;24.53;;;8.40;99.90;;;;;;6105115;23;20578;-90
2022/03/16 08:17:08;;;;;;;36.20;24.50;;;8.40;99.90;;;;;;6104099;23;20461;-90
2022/03/16 08:19:34;;;;;;;36.50;25.63;;;8.30;99.90;;;;;;6085482;23;20220;-89
2022/03/16 08:21:59;;;;;;;42.87;26.97;;;8.30;99.90;;;;;;6103097;23;20393;-89
2022/03/16 08:24:25;;;;;;;39.53;26.13;;;8.40;99.90;;;;;;6102697;23;20530;-89
2022/03/16 08:26:51;;;;;;;37.47;25.40;;;8.50;99.90;;;;;;6109250;23;20164;-89
2022/03/16 08:29:32;;;;;;;37.10;25.40;;;8.50;99.90;;;;;;6133444;23;20305;-89
2022/03/16 08:31:58;;;;;;;38.53;24.43;;;8.70;99.90;;;;;;6107783;23;20897;-89
2022/03/16 08:34:24;;;;;;;32.10;23.37;;;8.70;99.90;;;;;;6108048;23;20887;-88
2022/03/16 08:36:51;;;;;;;32.70;22.53;;;8.90;99.90;;;;;;6104159;23;20403;-89
2022/03/16 08:39:29;;;;;;;35.90;24.30;;;9.10;99.90;;;;;;6106699;23;20911;-89
2022/03/16 08:42:00;;;;;;;36.57;24.87;;;9.20;99.90;;;;;;6105218;23;20395;-88
2022/03/16 08:44:35;;;;;;;32.50;22.67;;;9.10;99.90;;;;;;6108147;23;20602;-89
2022/03/16 08:47:01;;;;;;;34.20;24.30;;;9.00;99.90;;;;;;6106876;23;20429;-89
2022/03/16 08:49:38;;;;;;;35.27;24.00;;;9.20;99.90;;;;;;6105409;23;20533;-88
2022/03/16 08:52:25;;;;;;;34.17;23.60;;;9.20;99.90;;;;;;6107156;23;20879;-89
2022/03/16 08:54:54;;;;;;;38.90;24.47;;;9.30;99.90;;;;;;6133170;23;20468;-89
2022/03/16 08:57:22;;;;;;;34.53;23.67;;;9.50;99.90;;;;;;6103896;23;20640;-88
2022/03/16 08:59:51;;;;;;;37.80;25.50;;;9.50;99.90;;;;;;6105328;23;20646;-87
2022/03/16 09:02:29;;;;;;;33.80;24.60;;;9.40;99.90;;;;;;6103405;23;20421;-89
2022/03/16 09:04:58;;;;;;;32.20;22.57;;;9.50;99.90;;;;;;6107065;23;20391;-88
2022/03/16 09:07:32;;;;;;;31.77;21.50;;;9.40;99.90;;;;;;6103328;23;20431;-88
2022/03/16 09:09:57;;;;;;;34.70;22.93;;;9.40;99.90;;;;;;6105876;23;20508;-88
2022/03/16 09:12:24;;;;;;;33.33;23.10;;;9.50;99.90;;;;;;6108536;23;21061;-88
2022/03/16 09:14:49;;;;;;;35.37;23.63;;;9.80;99.90;;;;;;6108582;23;20264;-88
2022/03/16 09:17:17;;;;;;;35.93;22.83;;;9.70;99.90;;;;;;6106221;23;20769;-87
2022/03/16 09:19:43;;;;;;;31.83;22.10;;;9.50;99.90;;;;;;6131736;23;20434;-89
2022/03/16 09:22:09;;;;;;;31.57;21.60;;;9.70;99.90;;;;;;6107739;23;20761;-89
2022/03/16 09:24:38;;;;;;;34.47;23.40;;;9.70;99.90;;;;;;6106077;23;20755;-88
2022/03/16 09:27:06;;;;;;;31.60;21.30;;;9.80;99.90;;;;;;6106170;23;20174;-89
2022/03/16 09:29:32;;;;;;;29.20;20.97;;;9.70;99.90;;;;;;6109837;23;20453;-88
2022/03/16 09:31:58;;;;;;;33.20;21.67;;;9.70;99.90;;;;;;6107019;23;20393;-89
2022/03/16 09:34:24;;;;;;;28.37;20.53;;;9.90;99.90;;;;;;6105428;23;20239;-88
2022/03/16 09:36:50;;;;;;;31.00;21.23;;;10.00;99.90;;;;;;6103468;23;20187;-89
2022/03/16 09:39:15;;;;;;;28.70;19.90;;;10.10;99.90;;;;;;6105350;23;20192;-89
2022/03/16 09:41:41;;;;;;;30.80;21.00;;;10.10;99.90;;;;;;6104494;23;20389;-89
2022/03/16 09:44:09;;;;;;;31.63;21.37;;;10.10;99.90;;;;;;6107914;23;20610;-88
2022/03/16 09:46:39;;;;;;;27.00;19.53;;;10.10;99.90;;;;;;6107763;23;20227;-89
2022/03/16 09:49:07;;;;;;;26.70;19.27;;;10.20;99.90;;;;;;6115309;23;20444;-89
2022/03/16 09:51:36;;;;;;;28.77;20.70;;;10.00;99.90;;;;;;6110222;23;20389;-89
2022/03/16 09:54:03;;;;;;;25.53;18.60;;;10.00;99.90;;;;;;6106134;23;20471;-89
2022/03/16 09:56:33;;;;;;;27.83;18.83;;;9.80;99.90;;;;;;6105012;23;20399;-88
2022/03/16 09:59:00;;;;;;;28.70;18.93;;;9.90;99.90;;;;;;6105336;23;20392;-89
2022/03/16 10:01:25;;;;;;;25.47;19.10;;;9.80;99.90;;;;;;6104330;23;20399;-90
2022/03/16 10:03:54;;;;;;;28.03;20.23;;;9.90;99.90;;;;;;6104994;23;20880;-89
2022/03/16 10:06:24;;;;;;;29.00;19.33;;;9.90;99.90;;;;;;6102820;23;20560;-89
2022/03/16 10:14:18;;;;;;;29.07;18.70;;;9.90;99.90;;;;;;6134284;23;20418;-89
2022/03/16 10:19:49;;;;;;;28.17;17.60;;;9.80;99.90;;;;;;6147949;23;20147;-88
2022/03/16 10:22:28;;;;;;;23.47;17.87;;;10.10;99.90;;;;;;6113610;23;20396;-88
2022/03/16 10:25:07;;;;;;;26.97;19.70;;;10.20;99.90;;;;;;6109488;23;20828;-88
2022/03/16 10:27:40;;;;;;;23.30;17.23;;;10.60;99.90;;;;;;6106923;23;20392;-89
2022/03/16 10:30:13;;;;;;;23.83;19.33;;;10.80;99.90;;;;;;6109941;23;20444;-88
2022/03/16 10:32:55;;;;;;;28.03;19.37;;;11.00;99.90;;;;;;6111106;23;20388;-88
2022/03/16 10:36:00;;;;;;;25.73;19.67;;;11.00;99.90;;;;;;6109558;23;20384;-89
2022/03/16 10:38:27;;;;;;;24.30;17.80;;;11.40;99.90;;;;;;6032676;23;20401;-90
2022/03/16 10:41:14;;;;;;;24.50;18.47;;;11.60;99.90;;;;;;6050403;23;20409;-90
2022/03/16 10:46:38;;;;;;;23.00;17.67;;;12.00;99.90;;;;;;6135919;23;20632;-90
2022/03/16 10:49:09;;;;;;;21.10;18.00;;;12.50;99.90;;;;;;6109162;23;20482;-90
2022/03/16 10:51:37;;;;;;;23.63;18.53;;;12.20;99.90;;;;;;6109599;23;20401;-89
2022/03/16 10:54:05;;;;;;;24.13;17.70;;;12.20;99.90;;;;;;6108234;23;20471;-90
2022/03/16 10:56:34;;;;;;;22.43;17.67;;;12.50;99.90;;;;;;6110098;23;20408;-90
2022/03/16 10:59:05;;;;;;;23.57;18.23;;;12.70;99.90;;;;;;6107822;23;20428;-89
2022/03/16 11:01:33;;;;;;;21.00;17.70;;;12.70;99.90;;;;;;6108774;23;20737;-88
2022/03/16 11:04:01;;;;;;;22.87;17.10;;;12.90;99.90;;;;;;6108617;23;20478;-88
2022/03/16 11:06:30;;;;;;;20.83;16.90;;;13.10;99.90;;;;;;6110276;23;21236;-90
2022/03/16 11:09:21;;;;;;;19.57;16.60;;;13.60;99.90;;;;;;6135624;23;21153;-88
2022/03/16 11:14:51;;;;;;;20.17;16.33;;;13.90;99.90;;;;;;6135219;23;20372;-88
2022/03/16 11:17:18;;;;;;;19.27;16.63;;;13.90;99.90;;;;;;6109197;23;20420;-87
2022/03/16 11:19:46;;;;;;;22.00;15.77;;;13.60;99.90;;;;;;6110316;23;20389;-87
2022/03/16 11:26:16;;;;;;;18.40;16.20;;;13.90;99.90;;;;;;6045220;23;20748;-87
2022/03/16 11:29:12;;;;;;;17.43;15.37;;;13.50;99.90;;;;;;6134640;23;20439;-87
2022/03/16 11:31:42;;;;;;;17.20;15.17;;;13.50;99.90;;;;;;6108654;23;20416;-88
2022/03/16 11:34:11;;;;;;;18.60;15.50;;;13.70;99.90;;;;;;6104185;23;20389;-88
2022/03/16 11:36:45;;;;;;;17.57;15.20;;;13.60;99.90;;;;;;6105853;23;20796;-88
2022/03/16 11:39:21;;;;;;;18.80;16.43;;;13.60;99.90;;;;;;6104938;23;20389;-88
2022/03/16 11:41:53;;;;;;;18.80;15.70;;;13.60;99.90;;;;;;6107493;23;20384;-87
2022/03/16 11:44:34;;;;;;;18.37;15.70;;;13.50;99.90;;;;;;6132938;23;20432;-87
2022/03/16 11:47:09;;;;;;;16.97;14.70;;;13.40;99.90;;;;;;6108896;23;20441;-88
2022/03/16 11:49:36;;;;;;;18.20;16.20;;;13.40;99.90;;;;;;6106320;23;20448;-88
2022/03/16 11:52:08;;;;;;;17.70;15.10;;;13.50;99.90;;;;;;6106110;23;20388;-87
2022/03/16 11:54:51;;;;;;;18.63;15.07;;;13.40;99.90;;;;;;6102541;23;20474;-87
2022/03/16 11:57:50;;;;;;;19.07;16.07;;;13.70;99.90;;;;;;6106635;23;20399;-87
2022/03/16 12:00:17;;;;;;;17.63;15.23;;;14.10;99.90;;;;;;6104180;23;20423;-88
2022/03/16 12:02:51;;;;;;;17.23;15.00;;;14.40;99.90;;;;;;6103163;23;20385;-88
2022/03/16 12:05:20;;;;;;;23.00;16.43;;;14.40;99.90;;;;;;6104810;23;20390;-88
2022/03/16 12:07:46;;;;;;;20.30;14.67;;;14.40;99.90;;;;;;6105605;23;20396;-88
2022/03/16 12:10:15;;;;;;;20.93;15.90;;;14.10;99.90;;;;;;6107006;23;20763;-88
2022/03/16 12:12:58;;;;;;;30.07;16.60;;;13.80;99.90;;;;;;6104390;23;20157;-88
2022/03/16 12:15:28;;;;;;;23.67;16.00;;;13.60;99.90;;;;;;6106578;23;20560;-88
2022/03/16 12:18:02;;;;;;;23.00;15.67;;;13.50;99.90;;;;;;6106709;23;21108;-88
2022/03/16 12:20:34;;;;;;;22.40;16.20;;;13.40;99.90;;;;;;6105614;23;20383;-88
2022/03/16 12:23:07;;;;;;;17.93;14.57;;;13.40;99.90;;;;;;6106801;23;20734;-88
2022/03/16 12:25:34;;;;;;;21.00;15.07;;;13.30;99.90;;;;;;6107457;23;20877;-87
2022/03/16 12:30:52;;;;;;;21.23;16.80;;;13.30;99.90;;;;;;6132233;23;20396;-88
2022/03/16 12:33:22;;;;;;;17.90;14.90;;;13.50;99.90;;;;;;6114557;23;20396;-88
2022/03/16 12:35:51;;;;;;;18.87;15.60;;;13.40;99.90;;;;;;6112834;23;20399;-88
2022/03/16 12:38:17;;;;;;;20.30;15.77;;;13.30;99.90;;;;;;6103388;23;20844;-88
2022/03/16 12:43:28;;;;;;;19.50;15.50;;;13.10;99.90;;;;;;6130981;23;20742;-88
2022/03/16 12:46:35;;;;;;;16.50;13.90;;;13.10;99.90;;;;;;6107466;23;20440;-89
2022/03/16 12:49:11;;;;;;;17.33;14.60;;;13.20;99.90;;;;;;6128092;23;20439;-88
2022/03/16 12:51:44;;;;;;;17.97;14.90;;;13.50;99.90;;;;;;6104762;23;20403;-88
2022/03/16 12:54:32;;;;;;;16.63;14.83;;;13.60;99.90;;;;;;6105392;23;20405;-89
2022/03/16 12:57:09;;;;;;;17.47;14.60;;;13.50;99.90;;;;;;6107560;23;20404;-87
2022/03/16 12:59:38;;;;;;;18.93;14.47;;;13.40;99.90;;;;;;6104628;23;20705;-89
2022/03/16 13:02:12;;;;;;;19.63;14.40;;;13.10;99.90;;;;;;6105521;23;20400;-87
2022/03/16 13:04:40;;;;;;;17.40;14.07;;;12.90;99.90;;;;;;6104556;23;20389;-89
2022/03/16 13:07:06;;;;;;;14.70;13.03;;;12.90;99.90;;;;;;6106212;23;20400;-89
2022/03/16 13:09:33;;;;;;;17.03;14.30;;;12.90;99.90;;;;;;6105884;23;20539;-88
2022/03/16 13:12:11;;;;;;;15.43;12.67;;;13.10;99.90;;;;;;6107311;23;20846;-88